Time;durP1;ratioP1;P1;durP2;ratioP2;P2;SDS_P1;SDS_P2;PMS_P1;PMS_P2;Temp;Humidity;BMP_temperature;BMP_pressure;BME280_temperature;BME280_humidity;BME280_pressure;Samples;Min_cycle;Max_cycle;Signal;HPM_P1;HPM_P2
2022/07/15 00:02:22;;;;;;;6.15;2.00;;;;;;;12.29;100.00;99137.84;5100725;28;20035;-96
2022/07/15 00:04:47;;;;;;;9.38;1.83;;;;;;;12.25;100.00;99146.59;5103185;28;20027;-96
2022/07/15 00:07:14;;;;;;;10.10;1.90;;;;;;;12.21;100.00;99146.66;5083764;28;20040;-96
2022/07/15 00:12:26;;;;;;;8.55;1.92;;;;;;;12.28;100.00;99150.94;5098720;28;20419;-96
2022/07/15 00:14:52;;;;;;;8.02;2.03;;;;;;;12.24;100.00;99134.41;5087724;28;20027;-95
2022/07/15 00:17:17;;;;;;;7.20;1.80;;;;;;;12.26;100.00;99140.50;5083894;28;20032;-96
2022/07/15 00:19:43;;;;;;;8.38;2.47;;;;;;;12.25;100.00;99133.53;5085393;28;20390;-96
2022/07/15 00:22:09;;;;;;;8.77;2.10;;;;;;;12.20;100.00;99144.91;5080788;28;20051;-96
2022/07/15 00:24:35;;;;;;;7.75;1.95;;;;;;;12.16;100.00;99143.19;5082779;28;20536;-95
2022/07/15 00:27:02;;;;;;;9.70;2.45;;;;;;;12.19;100.00;99141.44;5080762;28;20427;-96
2022/07/15 00:29:31;;;;;;;8.07;2.05;;;;;;;12.17;100.00;99139.72;5085410;28;20042;-96
2022/07/15 00:31:56;;;;;;;9.25;2.20;;;;;;;12.18;100.00;99136.19;5084121;28;20020;-96
2022/07/15 00:34:22;;;;;;;11.80;2.50;;;;;;;12.08;100.00;99144.16;5085423;28;20081;-96
2022/07/15 00:36:50;;;;;;;10.75;3.00;;;;;;;12.24;100.00;99144.84;5093855;28;20024;-96
2022/07/15 00:39:17;;;;;;;9.50;2.75;;;;;;;12.14;100.00;99140.59;5089217;28;20031;-96
2022/07/15 00:41:44;;;;;;;13.25;2.47;;;;;;;12.15;100.00;99146.69;5084007;28;20035;-96
2022/07/15 00:44:10;;;;;;;11.30;2.95;;;;;;;12.02;100.00;99127.63;5083689;28;20023;-96
2022/07/15 00:46:36;;;;;;;8.95;3.20;;;;;;;12.03;100.00;99122.41;5087615;28;20131;-96
2022/07/15 00:49:06;;;;;;;13.48;3.20;;;;;;;12.13;100.00;99134.50;5089118;28;20034;-95
2022/07/15 00:51:45;;;;;;;8.40;3.00;;;;;;;12.16;100.00;99128.38;5083424;28;20095;-96
2022/07/15 00:54:15;;;;;;;13.40;3.80;;;;;;;12.15;100.00;99128.38;5088766;28;20058;-96
2022/07/15 00:56:48;;;;;;;11.23;3.60;;;;;;;12.25;100.00;99119.59;5087453;28;20027;-96
2022/07/15 00:59:15;;;;;;;10.70;3.45;;;;;;;12.09;100.00;99130.19;5089929;28;20028;-96
2022/07/15 01:01:42;;;;;;;8.48;3.10;;;;;;;12.17;100.00;99114.44;5085151;28;20032;-96
2022/07/15 01:04:09;;;;;;;10.55;2.92;;;;;;;12.04;100.00;99118.91;5083659;28;20026;-96
2022/07/15 01:06:35;;;;;;;9.02;3.28;;;;;;;12.02;100.00;99118.03;5089100;28;20035;-96
2022/07/15 01:09:00;;;;;;;8.13;3.10;;;;;;;11.99;100.00;99104.16;5086189;28;20047;-96
2022/07/15 01:11:30;;;;;;;13.60;3.33;;;;;;;12.08;100.00;99110.16;5087849;28;20319;-96
2022/07/15 01:13:57;;;;;;;12.43;3.90;;;;;;;12.02;100.00;99119.81;5092130;28;20169;-94
2022/07/15 01:16:23;;;;;;;11.48;3.85;;;;;;;12.04;100.00;99116.28;5086322;28;20656;-95
2022/07/15 01:18:48;;;;;;;10.98;3.70;;;;;;;12.02;100.00;99099.75;5084471;28;20465;-96
2022/07/15 01:21:19;;;;;;;12.90;3.17;;;;;;;12.57;100.00;99115.78;5085819;28;20077;-96
2022/07/15 01:23:45;;;;;;;10.23;3.55;;;;;;;12.00;100.00;99106.75;5087745;28;20088;-96
2022/07/15 01:26:12;;;;;;;10.98;3.67;;;;;;;11.98;100.00;99108.50;5088719;28;20102;-93
2022/07/15 01:28:40;;;;;;;11.35;3.72;;;;;;;11.95;100.00;99104.19;5088915;28;20495;-96
2022/07/15 01:31:05;;;;;;;9.20;3.78;;;;;;;11.94;100.00;99105.06;5084249;28;20114;-95
2022/07/15 01:33:32;;;;;;;11.23;4.15;;;;;;;11.97;100.00;99104.16;5087418;28;20110;-96
2022/07/15 01:35:59;;;;;;;12.07;4.10;;;;;;;11.99;100.00;99110.22;5087305;28;20495;-96
2022/07/15 01:38:25;;;;;;;9.32;3.75;;;;;;;11.93;100.00;99102.44;5091316;28;20118;-96
2022/07/15 01:40:51;;;;;;;9.88;3.80;;;;;;;11.95;100.00;99105.91;5107450;28;20028;-94
2022/07/15 01:43:17;;;;;;;10.60;4.00;;;;;;;12.06;100.00;99116.28;5088392;28;20106;-96
2022/07/15 01:45:45;;;;;;;11.38;4.10;;;;;;;11.85;100.00;99101.63;5089320;28;20100;-95
2022/07/15 01:49:21;;;;;;;10.35;3.92;;;;;;;12.00;100.00;99103.28;5087095;28;20035;-96
2022/07/15 01:50:59;;;;;;;9.88;3.67;;;;;;;11.90;100.00;99103.31;5104444;28;20688;-95
2022/07/15 01:53:26;;;;;;;11.30;3.47;;;;;;;11.98;100.00;99102.41;5087209;28;20487;-95
2022/07/15 01:55:52;;;;;;;9.02;3.63;;;;;;;11.93;100.00;99090.22;5085468;28;20067;-96
2022/07/15 01:58:20;;;;;;;9.65;3.35;;;;;;;11.94;100.00;99094.59;5082413;28;20048;-96
2022/07/15 02:00:46;;;;;;;11.40;3.75;;;;;;;12.02;100.00;99073.59;5083685;28;20027;-95
2022/07/15 02:03:12;;;;;;;8.95;3.38;;;;;;;11.92;100.00;99069.31;5084417;28;20488;-96
2022/07/15 02:05:38;;;;;;;8.85;2.95;;;;;;;11.97;100.00;99064.97;5087027;28;20047;-96
2022/07/15 02:08:05;;;;;;;12.38;3.50;;;;;;;12.07;100.00;99076.19;5080067;28;20020;-96
2022/07/15 02:10:39;;;;;;;10.02;3.00;;;;;;;11.93;100.00;99074.53;5082284;28;20028;-96
2022/07/15 02:13:17;;;;;;;10.88;3.17;;;;;;;12.84;100.00;99080.53;5086830;28;20028;-96
2022/07/15 02:15:42;;;;;;;10.65;3.13;;;;;;;11.94;100.00;99072.81;5080849;28;20024;-96
2022/07/15 02:18:10;;;;;;;10.82;2.90;;;;;;;11.89;100.00;99074.59;5081183;28;20065;-96
2022/07/15 02:20:38;;;;;;;11.80;3.28;;;;;;;12.08;100.00;99081.41;5080518;28;20035;-96
2022/07/15 02:23:09;;;;;;;15.80;3.55;;;;;;;11.95;100.00;99080.66;5082769;28;21026;-95
2022/07/15 02:25:35;;;;;;;9.85;3.20;;;;;;;11.84;100.00;99085.06;5084232;28;20040;-96
2022/07/15 02:28:03;;;;;;;14.30;3.15;;;;;;;11.84;100.00;99076.38;5078505;28;20396;-96
2022/07/15 02:30:35;;;;;;;10.05;3.45;;;;;;;11.82;100.00;99080.75;5081240;28;20054;-96
2022/07/15 02:33:03;;;;;;;11.55;3.60;;;;;;;11.77;100.00;99092.13;5081559;28;20032;-96
2022/07/15 02:35:32;;;;;;;9.57;3.50;;;;;;;11.87;100.00;99086.78;5084374;28;20052;-95
2022/07/15 02:37:59;;;;;;;11.65;3.55;;;;;;;11.84;100.00;99079.84;5079664;28;20078;-96
2022/07/15 02:40:27;;;;;;;11.50;4.00;;;;;;;11.78;100.00;99088.59;5087744;28;20035;-96
2022/07/15 02:42:55;;;;;;;11.60;3.28;;;;;;;11.84;100.00;99094.66;5079616;28;20473;-96
2022/07/15 02:45:23;;;;;;;11.93;3.70;;;;;;;11.93;100.00;99085.00;5082139;28;20032;-96
2022/07/15 02:47:50;;;;;;;12.65;3.50;;;;;;;12.02;100.00;99086.66;5082397;28;20033;-96
2022/07/15 02:50:17;;;;;;;8.95;3.30;;;;;;;12.07;100.00;99095.34;5081946;28;20030;-95
2022/07/15 02:52:43;;;;;;;8.68;3.70;;;;;;;11.99;100.00;99085.84;5083937;28;20036;-96
2022/07/15 02:55:13;;;;;;;9.95;3.47;;;;;;;12.10;100.00;99086.63;5076974;28;20049;-95
2022/07/15 02:57:39;;;;;;;11.45;3.80;;;;;;;12.06;100.00;99087.53;5081780;28;20028;-96
2022/07/15 03:00:08;;;;;;;13.98;3.83;;;;;;;12.06;100.00;99092.75;5084903;28;20519;-96
2022/07/15 03:02:34;;;;;;;14.85;3.65;;;;;;;12.02;100.00;99096.28;5082648;28;20042;-96
2022/07/15 03:05:00;;;;;;;12.75;3.78;;;;;;;11.96;100.00;99086.75;5084616;28;20032;-96
2022/07/15 03:07:27;;;;;;;9.32;3.20;;;;;;;11.96;100.00;99086.75;5079898;28;20047;-96
2022/07/15 03:09:53;;;;;;;7.95;2.95;;;;;;;12.53;100.00;99101.84;5083860;28;20035;-96
2022/07/15 03:12:18;;;;;;;9.05;3.30;;;;;;;12.06;100.00;99090.13;5078937;28;20027;-96
2022/07/15 03:14:44;;;;;;;7.15;2.42;;;;;;;12.05;100.00;99083.16;5078997;28;20055;-96
2022/07/15 03:17:09;;;;;;;10.05;2.50;;;;;;;12.20;100.00;99082.16;5081833;28;20024;-96
2022/07/15 03:19:35;;;;;;;13.98;3.30;;;;;;;12.07;100.00;99069.19;5084055;28;20032;-96
2022/07/15 03:22:00;;;;;;;9.77;2.80;;;;;;;12.20;100.00;99079.53;5077239;28;20482;-96
2022/07/15 03:24:26;;;;;;;8.07;2.60;;;;;;;12.31;100.00;99087.28;5085107;28;20520;-96
2022/07/15 03:26:51;;;;;;;8.52;2.65;;;;;;;12.30;100.00;99086.38;5085243;28;20028;-95
2022/07/15 03:29:17;;;;;;;11.15;2.80;;;;;;;12.33;100.00;99069.81;5077759;28;20027;-96
2022/07/15 03:31:44;;;;;;;8.05;2.65;;;;;;;12.42;100.00;99077.56;5079744;28;20052;-96
2022/07/15 03:34:12;;;;;;;11.23;2.50;;;;;;;12.44;100.00;99079.28;5083217;28;20480;-96
2022/07/15 03:36:39;;;;;;;9.27;2.88;;;;;;;12.42;100.00;99072.31;5099744;28;20419;-96
2022/07/15 03:39:05;;;;;;;8.25;2.80;;;;;;;12.50;100.00;99069.59;5079687;28;20055;-96
2022/07/15 03:41:31;;;;;;;9.68;2.63;;;;;;;12.44;100.00;99081.00;5083574;28;20031;-96
2022/07/15 03:43:56;;;;;;;6.75;2.25;;;;;;;12.46;100.00;99063.56;5085774;28;20032;-96
2022/07/15 03:46:24;;;;;;;8.65;2.08;;;;;;;12.54;100.00;99066.06;5086459;28;20074;-96
2022/07/15 03:48:50;;;;;;;7.38;2.08;;;;;;;12.53;100.00;99066.97;5086093;28;20024;-95
2022/07/15 03:51:15;;;;;;;8.70;2.30;;;;;;;12.49;100.00;99055.66;5084686;28;20468;-94
2022/07/15 03:53:41;;;;;;;9.23;2.63;;;;;;;12.52;100.00;99049.53;5086811;28;20072;-96
2022/07/15 03:56:10;;;;;;;9.80;2.30;;;;;;;12.59;100.00;99052.03;5100971;28;20059;-95
2022/07/15 03:58:35;;;;;;;7.80;2.15;;;;;;;12.73;100.00;99038.78;5087253;28;20118;-95
2022/07/15 04:01:01;;;;;;;13.68;2.30;;;;;;;12.64;100.00;99024.06;5084970;28;20031;-95
2022/07/15 04:03:27;;;;;;;10.43;2.47;;;;;;;12.72;100.00;99033.56;5104747;28;20059;-96
2022/07/15 04:05:53;;;;;;;7.32;2.40;;;;;;;12.70;100.00;99030.13;5086638;28;20031;-96
2022/07/15 04:08:18;;;;;;;7.97;2.15;;;;;;;12.82;100.00;99037.81;5085232;28;20023;-95
2022/07/15 04:10:44;;;;;;;8.43;2.95;;;;;;;12.71;100.00;99031.88;5087191;28;20032;-96
2022/07/15 04:13:09;;;;;;;10.80;2.55;;;;;;;12.70;100.00;99041.44;5087792;28;20038;-96
2022/07/15 04:15:43;;;;;;;9.02;2.50;;;;;;;12.74;100.00;99029.19;5083581;28;20118;-96
2022/07/15 04:18:11;;;;;;;9.13;2.20;;;;;;;12.85;100.00;99036.91;5091948;28;20114;-95
2022/07/15 04:20:38;;;;;;;7.75;2.15;;;;;;;12.73;100.00;99033.53;5089622;28;20031;-96
2022/07/15 04:23:03;;;;;;;10.00;2.60;;;;;;;12.50;100.00;99031.25;5087651;28;20039;-96
2022/07/15 04:25:29;;;;;;;10.15;2.50;;;;;;;12.49;100.00;99037.34;5083430;28;20023;-96
2022/07/15 04:27:57;;;;;;;8.52;2.55;;;;;;;12.50;100.00;99041.72;5087385;28;20028;-96
2022/07/15 04:30:22;;;;;;;9.52;2.33;;;;;;;12.54;100.00;99048.63;5087301;28;20127;-96
2022/07/15 04:32:49;;;;;;;10.32;2.45;;;;;;;12.51;100.00;99027.75;5090577;28;20102;-96
2022/07/15 04:35:14;;;;;;;8.95;2.08;;;;;;;12.76;100.00;99028.28;5086205;28;20039;-96
2022/07/15 04:37:40;;;;;;;9.45;2.17;;;;;;;12.74;100.00;99016.97;5085472;28;20063;-96
2022/07/15 04:40:10;;;;;;;6.88;2.20;;;;;;;12.74;100.00;99018.72;5087334;28;20027;-95
2022/07/15 04:42:41;;;;;;;9.38;2.05;;;;;;;12.93;100.00;99017.59;5083694;28;20024;-95
2022/07/15 04:45:07;;;;;;;9.35;2.10;;;;;;;12.98;100.00;99018.41;5079859;28;20016;-96
2022/07/15 04:47:33;;;;;;;9.30;2.30;;;;;;;13.03;100.00;99005.22;5086322;28;20036;-95
2022/07/15 04:52:47;;;;;;;8.05;2.63;;;;;;;12.82;100.00;99001.19;5104333;28;20194;-95
2022/07/15 04:55:13;;;;;;;15.82;3.58;;;;;;;12.70;100.00;99006.56;5086362;28;20127;-95
2022/07/15 04:57:39;;;;;;;11.30;3.40;;;;;;;12.75;100.00;99007.38;5086399;28;20038;-94
2022/07/15 05:00:05;;;;;;;9.60;2.70;;;;;;;12.97;100.00;98997.44;5089544;28;20391;-95
2022/07/15 05:02:31;;;;;;;7.95;2.42;;;;;;;13.10;100.00;98993.75;5081079;28;20123;-96
2022/07/15 05:04:57;;;;;;;9.43;3.00;;;;;;;13.15;100.00;98994.56;5082931;28;20130;-96
2022/07/15 05:07:23;;;;;;;8.93;2.78;;;;;;;13.24;100.00;99000.56;5084665;28;20112;-95
2022/07/15 05:09:49;;;;;;;10.77;2.55;;;;;;;13.32;100.00;98986.44;5086346;28;20031;-94
2022/07/15 05:12:18;;;;;;;8.13;2.20;;;;;;;13.45;100.00;99007.22;5086078;28;20032;-95
2022/07/15 05:14:43;;;;;;;8.50;2.20;;;;;;;13.47;100.00;98995.81;5084492;28;20028;-96
2022/07/15 05:17:09;;;;;;;8.65;2.20;;;;;;;13.90;100.00;98996.78;5085844;28;20024;-96
2022/07/15 05:19:35;;;;;;;8.00;1.80;;;;;;;13.58;100.00;98987.75;5087282;28;20038;-95
2022/07/15 05:22:03;;;;;;;7.78;1.80;;;;;;;13.65;100.00;98972.78;5087850;28;20035;-95
2022/07/15 05:24:30;;;;;;;7.03;1.70;;;;;;;13.64;100.00;98984.19;5083363;28;21742;-96
2022/07/15 05:27:00;;;;;;;11.65;2.38;;;;;;;13.65;100.00;98988.53;5087638;28;20036;-95
2022/07/15 05:29:26;;;;;;;7.93;2.08;;;;;;;13.54;100.00;98974.75;5081563;28;20102;-96
2022/07/15 05:31:51;;;;;;;8.05;2.30;;;;;;;13.57;100.00;98983.44;5084945;28;20039;-95
2022/07/15 05:34:17;;;;;;;8.52;2.13;;;;;;;13.54;100.00;98993.97;5081955;28;20047;-96
2022/07/15 05:36:44;;;;;;;9.00;2.30;;;;;;;13.31;100.00;98995.16;5085899;28;20036;-96
2022/07/15 05:39:09;;;;;;;9.82;2.63;;;;;;;13.35;100.00;99006.50;5088883;28;20027;-95
2022/07/15 05:41:35;;;;;;;7.93;2.20;;;;;;;13.26;100.00;98997.03;5086913;28;20031;-95
2022/07/15 05:44:01;;;;;;;10.73;2.60;;;;;;;13.29;100.00;99004.81;5087584;28;20026;-96
2022/07/15 05:46:26;;;;;;;11.85;2.65;;;;;;;13.35;100.00;99005.59;5082591;28;20445;-93
2022/07/15 05:48:52;;;;;;;11.35;2.90;;;;;;;13.28;100.00;99003.09;5085296;28;20114;-96
2022/07/15 05:51:18;;;;;;;10.68;2.70;;;;;;;13.40;100.00;99017.78;5087385;28;20027;-96
2022/07/15 05:53:46;;;;;;;10.15;3.00;;;;;;;13.38;100.00;99022.16;5084930;28;20043;-96
2022/07/15 05:56:13;;;;;;;7.00;2.42;;;;;;;13.37;100.00;99007.34;5088779;28;20046;-96
2022/07/15 05:58:38;;;;;;;11.23;2.90;;;;;;;13.36;100.00;99002.13;5101942;28;20031;-96
2022/07/15 06:01:05;;;;;;;9.05;2.60;;;;;;;13.39;100.00;99004.69;5086405;28;20027;-95
2022/07/15 06:03:33;;;;;;;9.23;2.50;;;;;;;13.41;100.00;99011.63;5085676;28;20031;-95
2022/07/15 06:06:13;;;;;;;11.60;2.80;;;;;;;13.60;100.00;98999.09;5085930;28;20110;-96
2022/07/15 06:08:39;;;;;;;9.25;2.70;;;;;;;13.54;100.00;99001.84;5079804;28;20054;-96
2022/07/15 06:11:04;;;;;;;8.45;2.20;;;;;;;13.71;100.00;99001.53;5086938;28;20031;-96
2022/07/15 06:13:30;;;;;;;10.02;2.60;;;;;;;13.83;100.00;99009.19;5091248;28;20027;-92
2022/07/15 06:15:56;;;;;;;12.98;3.10;;;;;;;13.95;100.00;99026.41;5082500;28;20636;-93
2022/07/15 06:18:21;;;;;;;10.88;3.00;;;;;;;14.55;100.00;99024.38;5082004;28;20509;-93
2022/07/15 06:20:47;;;;;;;8.40;2.58;;;;;;;14.32;100.00;99037.97;5080381;28;20066;-90
2022/07/15 06:23:12;;;;;;;11.25;2.55;;;;;;;14.27;100.00;99039.84;5093262;28;20039;-91
2022/07/15 06:25:38;;;;;;;9.25;2.80;;;;;;;13.96;100.00;99043.03;5079337;28;20028;-90
2022/07/15 06:28:04;;;;;;;8.98;2.65;;;;;;;14.02;100.00;99042.91;5072345;28;20062;-91
2022/07/15 06:30:34;;;;;;;8.27;2.80;;;;;;;13.95;100.00;99033.44;5103103;28;20509;-95
2022/07/15 06:33:02;;;;;;;8.65;2.33;;;;;;;14.13;100.00;99043.56;5082319;28;20488;-96
2022/07/15 06:35:31;;;;;;;8.50;2.63;;;;;;;14.12;100.00;99033.97;5094149;28;20023;-96
2022/07/15 06:37:57;;;;;;;11.00;2.65;;;;;;;14.11;100.00;99031.38;5083947;28;20024;-96
2022/07/15 06:40:22;;;;;;;8.98;2.20;;;;;;;14.09;100.00;99026.16;5084094;28;20038;-96
2022/07/15 06:42:48;;;;;;;12.18;2.33;;;;;;;14.36;100.00;99010.75;5082291;28;20076;-96
2022/07/15 06:45:17;;;;;;;8.68;1.77;;;;;;;14.31;100.00;99016.13;5083838;28;20023;-96
2022/07/15 06:47:43;;;;;;;7.72;1.83;;;;;;;14.47;100.00;99005.31;5085499;28;20043;-96
2022/07/15 06:50:09;;;;;;;9.77;2.05;;;;;;;14.28;100.00;99010.06;5087807;28;20027;-96
2022/07/15 06:52:44;;;;;;;6.68;1.90;;;;;;;14.15;100.00;99004.19;5113771;28;20007;-97
2022/07/15 06:55:18;;;;;;;9.65;1.70;;;;;;;14.46;100.00;99004.44;5096043;28;20044;-96
2022/07/15 06:57:43;;;;;;;8.80;1.95;;;;;;;14.38;100.00;98995.88;5092896;28;20036;-95
2022/07/15 07:00:17;;;;;;;8.00;1.80;;;;;;;14.11;100.00;99005.16;5087065;28;20168;-96
2022/07/15 07:02:46;;;;;;;7.13;1.67;;;;;;;14.32;100.00;99001.22;5084832;28;20118;-96
2022/07/15 07:05:18;;;;;;;7.63;1.70;;;;;;;14.39;100.00;98996.72;5091312;28;20471;-96
2022/07/15 07:07:44;;;;;;;10.10;2.00;;;;;;;14.47;100.00;98989.56;5086516;28;20058;-96
2022/07/15 07:10:15;;;;;;;8.40;1.90;;;;;;;14.48;100.00;98996.53;5086737;28;20794;-96
2022/07/15 07:12:48;;;;;;;8.57;2.03;;;;;;;14.54;100.00;98990.28;5082199;28;20456;-96
2022/07/15 07:15:20;;;;;;;10.15;1.98;;;;;;;14.95;100.00;98993.81;5080859;28;20020;-96
2022/07/15 07:17:54;;;;;;;9.32;2.13;;;;;;;14.98;100.00;98986.69;5095089;28;20475;-96
2022/07/15 07:20:20;;;;;;;8.93;1.80;;;;;;;15.13;100.00;98988.13;5105236;28;20072;-96
2022/07/15 07:22:46;;;;;;;7.80;1.55;;;;;;;15.07;100.00;98987.38;5089770;27;20016;-96
2022/07/15 07:25:23;;;;;;;9.45;1.77;;;;;;;15.13;100.00;98980.22;5087393;28;20027;-96
2022/07/15 07:27:49;;;;;;;6.88;1.83;;;;;;;15.08;100.00;98984.72;5091776;28;20475;-96
2022/07/15 07:30:18;;;;;;;8.05;1.48;;;;;;;15.13;100.00;98992.50;5110578;28;20024;-96
2022/07/15 07:32:44;;;;;;;7.22;1.70;;;;;;;15.12;100.00;98990.78;5092012;28;20042;-95
2022/07/15 07:35:11;;;;;;;7.68;2.08;;;;;;;14.87;100.00;98996.59;5090950;28;20038;-96
2022/07/15 07:37:38;;;;;;;8.68;2.05;;;;;;;15.01;100.00;98996.28;5097635;28;20731;-96
2022/07/15 07:40:05;;;;;;;13.00;2.28;;;;;;;15.03;100.00;99005.00;5095161;28;20024;-96
2022/07/15 07:42:30;;;;;;;7.13;2.28;;;;;;;15.22;100.00;98994.91;5092237;28;20020;-96
2022/07/15 07:44:56;;;;;;;10.35;2.67;;;;;;;15.23;100.00;98994.00;5098878;28;20103;-96
2022/07/15 07:47:23;;;;;;;9.63;2.13;;;;;;;15.42;100.00;98990.91;5092931;28;20020;-96
2022/07/15 07:49:53;;;;;;;7.45;2.33;;;;;;;15.21;100.00;98981.81;5087329;28;20032;-96
2022/07/15 07:52:21;;;;;;;12.75;2.35;;;;;;;15.18;100.00;98995.88;5087741;28;20032;-96
2022/07/15 07:54:47;;;;;;;9.50;2.45;;;;;;;15.25;100.00;98983.47;5108222;28;20072;-96
2022/07/15 07:57:17;;;;;;;9.32;2.53;;;;;;;15.43;100.00;98990.03;5097017;28;20026;-96
2022/07/15 07:59:42;;;;;;;9.05;2.20;;;;;;;15.73;100.00;98980.50;5091471;28;20027;-96
2022/07/15 08:02:08;;;;;;;7.97;2.10;;;;;;;15.86;100.00;98975.78;5088731;28;20038;-96
2022/07/15 08:04:41;;;;;;;11.65;2.60;;;;;;;15.51;100.00;98969.66;5097881;28;20083;-96
2022/07/15 08:07:08;;;;;;;12.20;2.65;;;;;;;15.68;100.00;98974.47;5095284;28;20031;-96
2022/07/15 08:09:45;;;;;;;10.73;2.90;;;;;;;15.32;100.00;98977.16;5089240;28;20031;-96
2022/07/15 08:12:10;;;;;;;10.70;2.90;;;;;;;15.40;100.00;98987.47;5089080;28;20038;-96
2022/07/15 08:14:39;;;;;;;9.68;2.72;;;;;;;15.49;100.00;98981.97;5089361;28;20024;-96
2022/07/15 08:17:04;;;;;;;9.02;2.75;;;;;;;15.44;100.00;98973.34;5085148;28;20062;-96
2022/07/15 08:19:30;;;;;;;8.27;2.58;;;;;;;15.42;100.00;98975.16;5086075;28;20019;-96
2022/07/15 08:21:55;;;;;;;10.45;3.10;;;;;;;15.57;100.00;98974.75;5089361;28;20036;-96
2022/07/15 08:24:20;;;;;;;10.52;2.75;;;;;;;15.58;100.00;98979.13;5085628;28;20548;-96
2022/07/15 08:26:46;;;;;;;11.05;3.25;;;;;;;15.71;100.00;98971.75;5098193;28;20028;-96
2022/07/15 08:29:12;;;;;;;9.73;2.65;;;;;;;15.58;100.00;98983.53;5087864;28;20046;-95
2022/07/15 08:31:38;;;;;;;10.98;3.00;;;;;;;15.77;100.00;98989.13;5105694;28;20031;-95
2022/07/15 08:34:05;;;;;;;10.40;2.75;;;;;;;15.60;100.00;98990.47;5084067;28;20028;-96
2022/07/15 08:36:30;;;;;;;9.63;2.70;;;;;;;15.33;100.00;98986.75;5108963;28;20031;-95
2022/07/15 08:38:56;;;;;;;9.07;3.00;;;;;;;15.63;100.00;98985.13;5091874;28;20536;-96
2022/07/15 08:41:22;;;;;;;9.00;2.60;;;;;;;15.61;100.00;98971.16;5086071;28;20038;-96
2022/07/15 08:43:48;;;;;;;10.23;3.10;;;;;;;15.69;100.00;98973.59;5083521;28;20036;-95
2022/07/15 08:46:15;;;;;;;10.45;2.80;;;;;;;15.51;100.00;98969.66;5084103;28;20020;-96
2022/07/15 08:48:48;;;;;;;11.52;2.85;;;;;;;15.48;100.00;98969.75;5086251;28;20028;-95
2022/07/15 08:51:13;;;;;;;10.13;2.75;;;;;;;15.62;100.00;98978.13;5086758;28;20043;-95
2022/07/15 08:53:39;;;;;;;10.90;2.85;;;;;;;15.67;100.00;98973.63;5088545;28;20088;-94
2022/07/15 08:56:05;;;;;;;9.30;2.65;;;;;;;15.70;100.00;98970.06;5083094;28;20048;-95
2022/07/15 08:58:34;;;;;;;8.25;2.60;;;;;;;15.81;100.00;98957.50;5082338;28;20200;-96
2022/07/15 09:01:05;;;;;;;11.07;2.72;;;;;;;15.75;100.00;98967.28;5084839;28;20110;-95
2022/07/15 09:03:30;;;;;;;8.38;2.50;;;;;;;15.70;100.00;98965.66;5087336;28;20087;-95
2022/07/15 09:05:56;;;;;;;9.52;2.30;;;;;;;15.51;100.00;98967.03;5103709;28;20115;-96
2022/07/15 09:08:22;;;;;;;7.30;2.30;;;;;;;15.39;100.00;98954.22;5085880;28;20016;-96
2022/07/15 09:10:52;;;;;;;8.82;2.25;;;;;;;15.60;100.00;98961.56;5084301;28;20027;-95
2022/07/15 09:13:35;;;;;;;8.45;2.40;;;;;;;15.96;100.00;98965.88;5088459;28;20023;-96
2022/07/15 09:16:09;;;;;;;8.57;2.28;;;;;;;15.99;100.00;98957.91;5086146;28;20106;-95
2022/07/15 09:18:38;;;;;;;8.60;2.30;;;;;;;16.27;100.00;98960.63;5091717;28;20036;-95
2022/07/15 09:21:26;;;;;;;10.57;2.47;;;;;;;16.41;100.00;98954.06;5086990;28;20598;-95
2022/07/15 09:23:53;;;;;;;10.52;2.40;;;;;;;16.51;100.00;98961.66;5107695;28;21282;-93
2022/07/15 09:26:23;;;;;;;7.20;2.28;;;;;;;16.33;100.00;98960.44;5091603;28;20063;-96
2022/07/15 09:28:50;;;;;;;7.03;2.40;;;;;;;16.47;100.00;98946.84;5093837;28;20047;-95
2022/07/15 09:34:27;;;;;;;7.80;2.20;;;;;;;16.40;100.00;98955.84;5109063;28;20086;-94
2022/07/15 09:36:54;;;;;;;10.90;2.50;;;;;;;16.19;100.00;98950.31;5106547;28;20070;-94
2022/07/15 09:39:22;;;;;;;7.25;2.10;;;;;;;16.98;100.00;98952.34;5083579;28;20042;-94
2022/07/15 09:41:53;;;;;;;8.05;2.30;;;;;;;16.85;100.00;98943.94;5085799;28;20050;-95
2022/07/15 09:44:25;;;;;;;12.18;2.60;;;;;;;17.38;100.00;98940.50;5086653;28;20030;-92
2022/07/15 09:46:54;;;;;;;10.27;2.07;;;;;;;16.89;100.00;98941.19;5088917;28;20039;-96
2022/07/15 09:49:27;;;;;;;8.23;2.25;;;;;;;17.70;100.00;98952.59;5089409;28;20280;-94
2022/07/15 09:52:07;;;;;;;10.95;2.60;;;;;;;17.05;100.00;98944.22;5104264;28;20031;-93
2022/07/15 09:54:48;;;;;;;;;;;;;;;17.03;100.00;98945.16;5089812;28;20058;-92
2022/07/15 09:57:16;;;;;;;14.63;2.55;;;;;;;17.10;100.00;98940.56;5084548;28;19924;-93
2022/07/15 09:59:47;;;;;;;9.63;2.67;;;;;;;17.44;100.00;98934.16;5085231;28;20479;-95
2022/07/15 10:02:13;;;;;;;8.77;2.33;;;;;;;18.19;100.00;98933.25;5100385;28;20039;-95
2022/07/15 10:04:39;;;;;;;9.52;2.40;;;;;;;17.96;100.00;98920.94;5081045;28;20028;-92
2022/07/15 10:07:06;;;;;;;8.93;2.22;;;;;;;17.35;100.00;98924.78;5081741;28;20028;-92
2022/07/15 10:09:36;;;;;;;8.80;2.63;;;;;;;18.18;100.00;98924.50;5102169;28;20032;-93
2022/07/15 10:12:14;;;;;;;8.77;2.47;;;;;;;17.68;100.00;98922.75;5099932;27;20035;-91
2022/07/15 10:15:14;;;;;;;11.63;2.70;;;;;;;17.94;100.00;98925.41;5080580;28;20038;-92
2022/07/15 10:17:52;;;;;;;8.43;2.53;;;;;;;18.39;100.00;98909.63;5083155;28;20043;-92
2022/07/15 10:20:37;;;;;;;7.40;2.00;;;;;;;18.97;100.00;98910.91;5082433;28;20028;-95
2022/07/15 10:23:27;;;;;;;6.57;1.60;;;;;;;18.65;100.00;98907.75;5084402;28;20538;-92
2022/07/15 10:25:59;;;;;;;11.52;2.05;;;;;;;18.52;100.00;98909.13;5097545;28;20020;-92
2022/07/15 10:28:37;;;;;;;7.95;1.98;;;;;;;18.60;100.00;98918.47;5080143;28;20043;-92
2022/07/15 10:31:18;;;;;;;7.47;1.85;;;;;;;18.55;100.00;98909.00;5103069;28;20019;-94
2022/07/15 10:34:07;;;;;;;7.68;2.00;;;;;;;18.62;100.00;98921.06;5099864;28;20028;-92
2022/07/15 10:36:48;;;;;;;10.95;2.40;;;;;;;18.59;100.00;98913.25;5087147;28;20116;-92
2022/07/15 10:39:15;;;;;;;7.43;2.38;;;;;;;17.96;100.00;98924.44;5087030;28;20495;-92
2022/07/15 10:41:53;;;;;;;8.77;2.75;;;;;;;17.82;100.00;98924.03;5084673;28;20062;-95
2022/07/15 10:44:20;;;;;;;9.23;2.47;;;;;;;18.05;100.00;98929.38;5104777;28;20034;-94
2022/07/15 10:46:47;;;;;;;8.77;2.50;;;;;;;17.86;100.00;98923.88;5083803;28;20032;-95
2022/07/15 10:49:12;;;;;;;8.20;2.28;;;;;;;17.49;100.00;98924.31;5089665;28;20039;-95
2022/07/15 10:51:38;;;;;;;7.70;2.30;;;;;;;17.68;100.00;98935.09;5087138;28;20065;-94
2022/07/15 10:54:05;;;;;;;8.90;2.22;;;;;;;16.90;100.00;98936.81;5081177;28;20035;-96
2022/07/15 10:56:34;;;;;;;8.13;2.58;;;;;;;17.09;100.00;98942.34;5084273;28;20027;-95
2022/07/15 10:59:20;;;;;;;9.05;3.10;;;;;;;17.75;100.00;98944.50;5088571;28;20047;-95
2022/07/15 11:01:48;;;;;;;7.93;2.80;;;;;;;17.59;100.00;98930.97;5085880;28;20019;-95
2022/07/15 11:04:14;;;;;;;8.07;2.50;;;;;;;17.88;100.00;98944.91;5084485;28;20104;-94
2022/07/15 11:07:11;;;;;;;7.18;2.50;;;;;;;18.59;100.00;98937.91;5085242;28;20483;-94
2022/07/15 11:09:56;;;;;;;9.82;2.50;;;;;;;18.36;100.00;98941.41;5073636;28;20039;-95
2022/07/15 11:12:43;;;;;;;9.85;2.33;;;;;;;18.83;100.00;98929.94;5086719;28;20032;-94
2022/07/15 11:15:18;;;;;;;8.20;2.35;;;;;;;18.63;100.00;98922.78;5086977;28;20036;-95
2022/07/15 11:17:46;;;;;;;8.73;2.47;;;;;;;18.90;100.00;98922.63;5088244;28;20044;-95
2022/07/15 11:20:16;;;;;;;8.07;2.28;;;;;;;19.09;100.00;98925.38;5087804;28;20035;-95
2022/07/15 11:22:47;;;;;;;16.52;2.55;;;;;;;19.19;100.00;98918.81;5082262;28;20116;-94
2022/07/15 11:25:35;;;;;;;6.80;2.10;;;;;;;19.09;100.00;98915.69;5083029;28;20024;-95
2022/07/15 11:28:06;;;;;;;7.45;2.15;;;;;;;19.10;100.00;98920.03;5086272;28;20012;-95
2022/07/15 11:30:53;;;;;;;9.27;2.13;;;;;;;18.29;100.00;98912.66;5085820;28;20074;-94
2022/07/15 11:33:25;;;;;;;8.82;2.35;;;;;;;19.36;100.00;98915.44;5088516;28;20031;-95
2022/07/15 11:35:59;;;;;;;8.73;2.30;;;;;;;20.20;100.00;98909.16;5082143;28;20400;-94
2022/07/15 11:38:43;;;;;;;6.20;2.10;;;;;;;20.74;100.00;98893.41;5085051;28;20225;-94